Time;durP1;ratioP1;P1;durP2;ratioP2;P2;SDS_P1;SDS_P2;PMS_P1;PMS_P2;Temp;Humidity;BMP_temperature;BMP_pressure;BME280_temperature;BME280_humidity;BME280_pressure;Samples;Min_cycle;Max_cycle;Signal;HPM_P1;HPM_P2
2021/07/19 00:00:13;;;;;;;;;11.00;11.00;;;;;;;;5071977;27;51190;-53
2021/07/19 00:02:39;;;;;;;;;9.33;9.00;;;;;;;;5072090;27;51016;-53
2021/07/19 00:05:04;;;;;;;;;11.00;10.33;;;;;;;;5071756;27;51128;-52
2021/07/19 00:07:29;;;;;;;;;9.00;8.33;;;;;;;;5072491;27;51143;-50
2021/07/19 00:09:55;;;;;;;;;9.33;9.33;;;;;;;;5071973;27;51154;-54
2021/07/19 00:12:20;;;;;;;;;9.33;9.33;;;;;;;;5072179;28;51003;-47
2021/07/19 00:14:46;;;;;;;;;9.00;8.00;;;;;;;;5071950;27;51107;-51
2021/07/19 00:17:12;;;;;;;;;10.33;10.33;;;;;;;;5061996;27;51033;-50
2021/07/19 00:19:38;;;;;;;;;9.00;9.00;;;;;;;;5071708;27;52128;-51
2021/07/19 00:22:04;;;;;;;;;8.33;8.33;;;;;;;;5076265;27;51007;-49
2021/07/19 00:24:29;;;;;;;;;7.00;7.00;;;;;;;;5072066;28;51001;-50
2021/07/19 00:26:54;;;;;;;;;13.33;11.00;;;;;;;;5068562;27;50990;-52
2021/07/19 00:29:19;;;;;;;;;9.67;9.00;;;;;;;;5071554;27;51719;-49
2021/07/19 00:31:45;;;;;;;;;9.67;8.00;;;;;;;;5071853;28;50938;-51
2021/07/19 00:34:10;;;;;;;;;9.33;9.00;;;;;;;;5074071;28;50897;-49
2021/07/19 00:36:35;;;;;;;;;9.67;9.67;;;;;;;;5066901;27;51014;-49
2021/07/19 00:39:03;;;;;;;;;10.33;9.33;;;;;;;;5073265;28;52466;-50
2021/07/19 00:41:28;;;;;;;;;10.00;9.00;;;;;;;;5075536;27;51182;-50
2021/07/19 00:43:53;;;;;;;;;10.33;10.33;;;;;;;;5075372;27;50966;-52
2021/07/19 00:46:19;;;;;;;;;11.00;11.00;;;;;;;;5073583;27;51419;-51
2021/07/19 00:48:44;;;;;;;;;11.67;11.00;;;;;;;;5075022;27;51244;-49
2021/07/19 00:51:10;;;;;;;;;12.00;10.33;;;;;;;;5075264;27;50946;-52
2021/07/19 00:53:35;;;;;;;;;10.00;9.00;;;;;;;;5063381;27;51123;-52
2021/07/19 00:56:00;;;;;;;;;10.33;10.00;;;;;;;;5067541;28;50905;-48
2021/07/19 00:58:28;;;;;;;;;10.00;10.00;;;;;;;;5069151;28;51760;-49
2021/07/19 01:00:55;;;;;;;;;15.33;13.67;;;;;;;;5072268;27;52333;-51
2021/07/19 01:03:22;;;;;;;;;10.00;10.00;;;;;;;;5067844;28;51122;-51
2021/07/19 01:05:48;;;;;;;;;11.00;10.00;;;;;;;;5069451;27;51139;-51
2021/07/19 01:08:13;;;;;;;;;10.00;10.00;;;;;;;;5066233;28;51272;-52
2021/07/19 01:10:39;;;;;;;;;12.67;11.33;;;;;;;;5073571;27;51097;-50
2021/07/19 01:13:06;;;;;;;;;11.00;10.00;;;;;;;;5072165;27;51018;-49
2021/07/19 01:15:32;;;;;;;;;10.33;8.33;;;;;;;;5073376;27;50928;-51
2021/07/19 01:17:57;;;;;;;;;11.00;10.67;;;;;;;;5072458;27;51696;-51
2021/07/19 01:20:26;;;;;;;;;11.33;11.33;;;;;;;;5074657;27;51003;-49
2021/07/19 01:23:09;;;;;;;;;10.33;9.67;;;;;;;;5074909;27;50941;-49
2021/07/19 01:26:01;;;;;;;;;11.33;9.00;;;;;;;;5074893;28;51283;-51
2021/07/19 01:28:26;;;;;;;;;8.33;8.33;;;;;;;;5074596;27;51961;-50
2021/07/19 01:30:54;;;;;;;;;10.33;10.33;;;;;;;;5074530;27;51151;-51
2021/07/19 01:33:20;;;;;;;;;11.67;11.33;;;;;;;;5074574;27;50834;-52
2021/07/19 01:35:46;;;;;;;;;11.33;11.33;;;;;;;;5073258;27;51065;-52
2021/07/19 01:38:12;;;;;;;;;9.67;9.00;;;;;;;;5066708;28;51121;-48
2021/07/19 01:40:38;;;;;;;;;11.33;11.33;;;;;;;;5060142;27;50951;-50
2021/07/19 01:43:03;;;;;;;;;10.67;9.00;;;;;;;;5074776;28;51020;-49
2021/07/19 01:45:29;;;;;;;;;10.67;10.33;;;;;;;;5065022;27;51145;-51
2021/07/19 01:47:55;;;;;;;;;12.00;12.00;;;;;;;;5072523;28;53832;-50
2021/07/19 01:50:20;;;;;;;;;11.00;11.00;;;;;;;;5072957;28;51087;-51
2021/07/19 01:52:46;;;;;;;;;13.00;11.67;;;;;;;;5067629;27;51289;-49
2021/07/19 01:55:11;;;;;;;;;8.67;8.67;;;;;;;;5074496;27;51048;-49
2021/07/19 01:57:37;;;;;;;;;12.67;11.00;;;;;;;;5073017;28;52137;-52
2021/07/19 02:00:05;;;;;;;;;13.00;10.33;;;;;;;;5074161;27;51014;-54
2021/07/19 02:02:30;;;;;;;;;11.67;11.67;;;;;;;;5067445;27;51042;-51
2021/07/19 02:04:55;;;;;;;;;10.67;10.33;;;;;;;;5068366;28;51234;-54
2021/07/19 02:07:23;;;;;;;;;14.33;12.67;;;;;;;;5074033;28;50999;-51
2021/07/19 02:09:49;;;;;;;;;12.00;12.00;;;;;;;;5068210;27;51122;-48
2021/07/19 02:12:15;;;;;;;;;15.00;14.00;;;;;;;;5072768;28;51155;-53
2021/07/19 02:14:41;;;;;;;;;17.00;16.33;;;;;;;;5074038;28;50974;-54
2021/07/19 02:17:08;;;;;;;;;15.33;15.00;;;;;;;;5065175;27;51226;-51
2021/07/19 02:19:33;;;;;;;;;13.67;12.67;;;;;;;;5068461;28;51119;-53
2021/07/19 02:21:59;;;;;;;;;15.33;14.00;;;;;;;;5073859;27;51094;-51
2021/07/19 02:24:27;;;;;;;;;14.25;13.75;;;;;;;;5072517;28;51203;-51
2021/07/19 02:26:54;;;;;;;;;13.00;13.00;;;;;;;;5072394;27;51955;-50
2021/07/19 02:29:20;;;;;;;;;10.33;9.67;;;;;;;;5073484;27;51076;-51
2021/07/19 02:31:47;;;;;;;;;13.67;13.67;;;;;;;;5073435;27;51122;-50
2021/07/19 02:34:12;;;;;;;;;14.00;13.00;;;;;;;;5073603;27;50962;-50
2021/07/19 02:36:38;;;;;;;;;12.67;12.00;;;;;;;;5071255;27;51286;-48
2021/07/19 02:39:03;;;;;;;;;13.67;13.33;;;;;;;;5073450;27;50925;-49
2021/07/19 02:41:29;;;;;;;;;12.33;11.33;;;;;;;;5073334;27;51101;-49
2021/07/19 02:43:56;;;;;;;;;12.33;12.33;;;;;;;;5073628;27;51181;-49
2021/07/19 02:46:23;;;;;;;;;14.67;13.33;;;;;;;;5062649;27;51161;-49
2021/07/19 02:48:53;;;;;;;;;12.00;12.00;;;;;;;;5071965;28;51191;-51
2021/07/19 02:51:18;;;;;;;;;12.00;11.33;;;;;;;;5072078;28;50883;-50
2021/07/19 02:53:44;;;;;;;;;11.67;11.67;;;;;;;;5073367;27;50937;-51
2021/07/19 02:56:09;;;;;;;;;15.33;13.67;;;;;;;;5069805;27;51055;-51
2021/07/19 02:58:35;;;;;;;;;14.00;14.00;;;;;;;;5068810;27;51181;-51
2021/07/19 03:01:02;;;;;;;;;11.33;11.33;;;;;;;;5073286;27;51281;-49
2021/07/19 03:03:28;;;;;;;;;12.67;12.00;;;;;;;;5073115;27;51253;-51
2021/07/19 03:06:04;;;;;;;;;12.33;11.67;;;;;;;;5067776;27;51100;-49
2021/07/19 03:08:34;;;;;;;;;13.67;12.33;;;;;;;;5072197;27;51091;-51
2021/07/19 03:11:01;;;;;;;;;11.00;11.00;;;;;;;;5066526;27;51011;-52
2021/07/19 03:13:27;;;;;;;;;13.00;12.33;;;;;;;;5070883;27;51192;-51
2021/07/19 03:15:54;;;;;;;;;15.67;12.33;;;;;;;;5065490;28;51682;-52
2021/07/19 03:18:21;;;;;;;;;12.00;10.33;;;;;;;;5072428;27;51162;-48
2021/07/19 03:20:47;;;;;;;;;12.67;12.00;;;;;;;;5072976;27;51080;-48
2021/07/19 03:23:14;;;;;;;;;12.00;12.00;;;;;;;;5072725;27;51064;-52
2021/07/19 03:25:40;;;;;;;;;14.67;12.00;;;;;;;;5062809;28;51790;-51
2021/07/19 03:28:06;;;;;;;;;14.67;12.00;;;;;;;;5072508;28;51241;-52
2021/07/19 03:30:32;;;;;;;;;13.50;11.75;;;;;;;;5069849;27;50878;-49
2021/07/19 03:32:57;;;;;;;;;16.00;15.67;;;;;;;;5072592;27;51124;-52
2021/07/19 03:35:23;;;;;;;;;16.25;14.25;;;;;;;;5071445;27;52238;-52
2021/07/19 03:37:50;;;;;;;;;14.25;13.25;;;;;;;;5072665;28;51185;-50
2021/07/19 03:40:18;;;;;;;;;15.00;14.33;;;;;;;;5071421;28;51143;-50
2021/07/19 03:42:43;;;;;;;;;15.00;15.00;;;;;;;;5072710;27;51075;-52
2021/07/19 03:45:12;;;;;;;;;12.00;11.00;;;;;;;;5066193;27;50952;-52
2021/07/19 03:47:37;;;;;;;;;11.67;11.00;;;;;;;;5070554;28;50858;-51
2021/07/19 03:50:05;;;;;;;;;17.67;16.33;;;;;;;;5066125;28;51101;-48
2021/07/19 03:52:30;;;;;;;;;12.00;12.00;;;;;;;;5069707;28;50935;-52
2021/07/19 03:54:55;;;;;;;;;13.33;12.33;;;;;;;;5071085;27;52541;-52
2021/07/19 03:57:21;;;;;;;;;15.00;13.67;;;;;;;;5071080;28;51094;-52
2021/07/19 03:59:47;;;;;;;;;15.33;14.33;;;;;;;;5070094;27;51948;-50
2021/07/19 04:02:14;;;;;;;;;15.25;15.25;;;;;;;;5070579;28;50953;-53
2021/07/19 04:04:45;;;;;;;;;16.50;15.00;;;;;;;;5069258;28;53078;-52
2021/07/19 04:07:12;;;;;;;;;14.33;13.67;;;;;;;;5072029;27;51045;-52
2021/07/19 04:09:38;;;;;;;;;15.00;15.00;;;;;;;;5073137;28;51231;-51
2021/07/19 04:12:05;;;;;;;;;15.33;14.33;;;;;;;;5075144;27;51375;-52
2021/07/19 04:14:30;;;;;;;;;15.00;15.00;;;;;;;;5075364;28;52557;-51
2021/07/19 04:16:55;;;;;;;;;14.33;13.67;;;;;;;;5065151;27;50907;-51
2021/07/19 04:19:21;;;;;;;;;15.00;15.00;;;;;;;;5075644;27;51162;-51
2021/07/19 04:21:46;;;;;;;;;13.33;13.33;;;;;;;;5074759;27;50836;-52
2021/07/19 04:24:11;;;;;;;;;15.75;15.00;;;;;;;;5074236;28;54290;-48
2021/07/19 04:26:37;;;;;;;;;14.00;13.33;;;;;;;;5074167;27;50990;-48
2021/07/19 04:29:03;;;;;;;;;12.33;11.00;;;;;;;;5075709;27;51152;-49
2021/07/19 04:31:28;;;;;;;;;13.33;13.33;;;;;;;;5067545;27;51296;-49
2021/07/19 04:33:53;;;;;;;;;17.00;16.00;;;;;;;;5075435;27;52132;-52
2021/07/19 04:36:18;;;;;;;;;13.00;12.00;;;;;;;;5065946;27;51300;-50
2021/07/19 04:38:46;;;;;;;;;14.33;13.67;;;;;;;;5075625;28;50974;-49
2021/07/19 04:41:11;;;;;;;;;14.33;13.67;;;;;;;;5069237;27;51297;-52
2021/07/19 04:43:38;;;;;;;;;13.67;12.00;;;;;;;;5075328;27;52009;-51
2021/07/19 04:46:03;;;;;;;;;13.00;13.00;;;;;;;;5068493;27;50974;-51
2021/07/19 04:48:28;;;;;;;;;13.00;13.00;;;;;;;;5069099;27;51131;-52
2021/07/19 04:50:53;;;;;;;;;13.00;13.00;;;;;;;;5073691;28;50952;-52
2021/07/19 04:53:18;;;;;;;;;12.67;12.67;;;;;;;;5074944;27;52114;-52
2021/07/19 04:55:48;;;;;;;;;15.00;13.00;;;;;;;;5070495;27;51125;-51
2021/07/19 04:58:19;;;;;;;;;12.75;12.75;;;;;;;;5073876;27;51313;-52
2021/07/19 05:01:05;;;;;;;;;15.50;15.50;;;;;;;;5074140;27;51441;-55
2021/07/19 05:03:34;;;;;;;;;13.00;13.00;;;;;;;;5074492;27;50932;-51
2021/07/19 05:05:59;;;;;;;;;14.00;13.33;;;;;;;;5068513;27;51305;-49
2021/07/19 05:08:25;;;;;;;;;17.00;16.00;;;;;;;;5068407;28;51094;-52
2021/07/19 05:10:54;;;;;;;;;17.00;17.00;;;;;;;;5073844;28;51244;-53
2021/07/19 05:13:20;;;;;;;;;15.00;14.00;;;;;;;;5074213;27;51792;-50
2021/07/19 05:15:46;;;;;;;;;14.67;14.67;;;;;;;;5069804;27;51165;-49
2021/07/19 05:18:11;;;;;;;;;14.00;14.00;;;;;;;;5065520;28;50930;-52
2021/07/19 05:20:37;;;;;;;;;14.33;13.33;;;;;;;;5065190;28;50926;-53
2021/07/19 05:23:03;;;;;;;;;15.33;14.33;;;;;;;;5068023;28;52076;-53
2021/07/19 05:25:31;;;;;;;;;15.00;14.00;;;;;;;;5064394;28;50912;-52
2021/07/19 05:28:09;;;;;;;;;14.67;14.00;;;;;;;;5060625;27;51164;-54
2021/07/19 05:30:35;;;;;;;;;15.67;15.67;;;;;;;;5066085;28;51056;-53
2021/07/19 05:33:00;;;;;;;;;16.67;16.67;;;;;;;;5062348;28;51849;-53
2021/07/19 05:35:26;;;;;;;;;14.67;14.00;;;;;;;;5071265;27;51481;-53
2021/07/19 05:37:51;;;;;;;;;14.33;14.00;;;;;;;;5069202;27;51056;-52
2021/07/19 05:40:17;;;;;;;;;18.33;18.00;;;;;;;;5060105;27;51327;-52
2021/07/19 05:42:42;;;;;;;;;14.33;14.00;;;;;;;;5056394;27;51977;-49
2021/07/19 05:45:08;;;;;;;;;14.33;13.33;;;;;;;;5069150;27;50913;-52
2021/07/19 05:47:33;;;;;;;;;16.00;15.00;;;;;;;;5063139;28;51129;-48
2021/07/19 05:49:59;;;;;;;;;15.67;14.00;;;;;;;;5066543;28;51264;-51
2021/07/19 05:52:24;;;;;;;;;16.00;15.00;;;;;;;;5059940;28;51290;-54
2021/07/19 05:54:49;;;;;;;;;11.67;11.67;;;;;;;;5067072;28;51067;-55
2021/07/19 05:57:15;;;;;;;;;13.00;13.00;;;;;;;;5064545;28;50977;-55
2021/07/19 05:59:40;;;;;;;;;12.67;12.00;;;;;;;;5064900;28;51246;-55
2021/07/19 06:02:06;;;;;;;;;11.33;11.33;;;;;;;;5066957;27;51852;-56
2021/07/19 06:04:31;;;;;;;;;13.00;13.00;;;;;;;;5073451;27;51109;-56
2021/07/19 06:06:56;;;;;;;;;12.33;12.33;;;;;;;;5073584;27;50932;-55
2021/07/19 06:09:21;;;;;;;;;13.00;13.00;;;;;;;;5074329;27;51098;-54
2021/07/19 06:11:47;;;;;;;;;13.67;13.67;;;;;;;;5069462;28;51002;-56
2021/07/19 06:14:12;;;;;;;;;11.33;11.33;;;;;;;;5068733;28;51037;-55
2021/07/19 06:16:38;;;;;;;;;13.33;13.00;;;;;;;;5073169;27;50955;-56
2021/07/19 06:19:04;;;;;;;;;10.33;9.33;;;;;;;;5074106;28;51210;-55
2021/07/19 06:21:29;;;;;;;;;14.33;14.33;;;;;;;;5073080;27;52380;-56
2021/07/19 06:23:54;;;;;;;;;20.33;19.00;;;;;;;;5073329;28;51141;-56
2021/07/19 06:26:19;;;;;;;;;16.00;15.00;;;;;;;;5073326;27;51223;-55
2021/07/19 06:28:45;;;;;;;;;14.00;14.00;;;;;;;;5073604;27;50839;-55
2021/07/19 06:31:11;;;;;;;;;14.33;13.33;;;;;;;;5071887;28;52001;-55
2021/07/19 06:33:36;;;;;;;;;13.33;13.00;;;;;;;;5072228;28;51094;-56
2021/07/19 06:36:02;;;;;;;;;14.00;14.00;;;;;;;;5073262;27;51275;-55
2021/07/19 06:38:27;;;;;;;;;19.00;19.00;;;;;;;;5073323;28;51095;-54
2021/07/19 06:40:52;;;;;;;;;13.67;13.67;;;;;;;;5072868;27;51006;-55
2021/07/19 06:43:17;;;;;;;;;15.75;15.25;;;;;;;;5073338;27;50828;-55
2021/07/19 06:45:46;;;;;;;;;16.33;16.33;;;;;;;;5072671;27;51067;-55
2021/07/19 06:48:11;;;;;;;;;15.33;15.00;;;;;;;;5072711;27;51021;-55
2021/07/19 06:50:36;;;;;;;;;14.00;13.67;;;;;;;;5072588;27;51101;-55
2021/07/19 06:53:02;;;;;;;;;16.00;15.00;;;;;;;;5072930;27;51127;-55
2021/07/19 06:55:27;;;;;;;;;15.00;15.00;;;;;;;;5072638;28;50878;-55
2021/07/19 06:57:52;;;;;;;;;13.33;13.33;;;;;;;;5073288;27;50925;-55
2021/07/19 07:00:17;;;;;;;;;19.00;17.67;;;;;;;;5072349;27;51124;-55
2021/07/19 07:02:43;;;;;;;;;17.67;17.00;;;;;;;;5072399;27;50947;-55
2021/07/19 07:05:08;;;;;;;;;16.33;16.33;;;;;;;;5070978;28;51102;-56
2021/07/19 07:07:34;;;;;;;;;15.25;15.00;;;;;;;;5072719;28;51066;-56
2021/07/19 07:09:59;;;;;;;;;13.33;12.67;;;;;;;;5072431;27;51937;-55
2021/07/19 07:12:25;;;;;;;;;14.00;14.00;;;;;;;;5072387;27;50874;-56
2021/07/19 07:14:50;;;;;;;;;14.00;12.50;;;;;;;;5072211;27;51007;-56
2021/07/19 07:17:15;;;;;;;;;15.25;14.50;;;;;;;;5072264;28;51115;-60
2021/07/19 07:19:41;;;;;;;;;13.75;13.00;;;;;;;;5071524;27;51179;-56
2021/07/19 07:22:06;;;;;;;;;13.25;12.75;;;;;;;;5072373;27;50906;-57
2021/07/19 07:24:31;;;;;;;;;12.75;12.75;;;;;;;;5072216;27;50907;-55
2021/07/19 07:26:57;;;;;;;;;12.75;12.75;;;;;;;;5072454;27;51204;-56
2021/07/19 07:29:22;;;;;;;;;11.00;11.00;;;;;;;;5072005;28;52374;-55
2021/07/19 07:31:47;;;;;;;;;13.00;13.00;;;;;;;;5072194;28;50948;-55
2021/07/19 07:34:12;;;;;;;;;11.00;10.00;;;;;;;;5072277;27;50996;-56
2021/07/19 07:36:38;;;;;;;;;13.00;12.67;;;;;;;;5072658;27;50958;-56
2021/07/19 07:39:03;;;;;;;;;12.67;12.67;;;;;;;;5071828;27;51850;-55
2021/07/19 07:41:31;;;;;;;;;11.00;11.00;;;;;;;;5072075;27;50905;-56
2021/07/19 07:43:57;;;;;;;;;10.75;10.50;;;;;;;;5071973;27;51227;-55
2021/07/19 07:46:23;;;;;;;;;9.67;9.67;;;;;;;;5072078;27;51037;-56
2021/07/19 07:48:49;;;;;;;;;8.67;8.67;;;;;;;;5071755;27;52515;-56
2021/07/19 07:51:14;;;;;;;;;12.00;11.25;;;;;;;;5071931;27;51029;-57
2021/07/19 07:53:39;;;;;;;;;12.00;11.75;;;;;;;;5071932;28;50816;-56
2021/07/19 07:56:04;;;;;;;;;11.75;11.50;;;;;;;;5069274;27;51021;-56
2021/07/19 07:58:30;;;;;;;;;11.25;10.25;;;;;;;;5071714;27;51892;-56
2021/07/19 08:00:55;;;;;;;;;10.67;9.67;;;;;;;;5070512;28;50903;-56
2021/07/19 08:03:21;;;;;;;;;9.67;9.00;;;;;;;;5072414;27;50944;-55
2021/07/19 08:05:46;;;;;;;;;9.00;8.00;;;;;;;;5072515;28;50911;-56
2021/07/19 08:08:11;;;;;;;;;5.67;5.67;;;;;;;;5071445;27;51198;-56
2021/07/19 08:10:37;;;;;;;;;7.33;7.33;;;;;;;;5072263;27;50899;-56
2021/07/19 08:13:03;;;;;;;;;8.33;8.00;;;;;;;;5070563;28;50905;-55
2021/07/19 08:15:28;;;;;;;;;7.50;7.50;;;;;;;;5072313;28;50928;-56
2021/07/19 08:17:53;;;;;;;;;6.33;6.33;;;;;;;;5069651;28;52035;-56
2021/07/19 08:20:19;;;;;;;;;9.00;9.00;;;;;;;;5071702;27;51013;-56
2021/07/19 08:22:47;;;;;;;;;7.00;7.00;;;;;;;;5071706;27;51572;-56
2021/07/19 08:25:12;;;;;;;;;6.50;6.50;;;;;;;;5071898;28;51204;-56
2021/07/19 08:27:37;;;;;;;;;8.50;8.00;;;;;;;;5069742;28;53059;-57
2021/07/19 08:30:04;;;;;;;;;8.50;8.25;;;;;;;;5071270;27;51057;-55
2021/07/19 08:32:30;;;;;;;;;8.50;8.00;;;;;;;;5071001;27;51059;-56
2021/07/19 08:34:55;;;;;;;;;9.00;9.00;;;;;;;;5070203;28;50878;-56
2021/07/19 08:37:20;;;;;;;;;8.00;8.00;;;;;;;;5070720;27;51175;-56
2021/07/19 08:39:45;;;;;;;;;8.25;7.50;;;;;;;;5070898;27;50998;-56
2021/07/19 08:42:12;;;;;;;;;8.75;7.25;;;;;;;;5070769;28;51255;-56
2021/07/19 08:44:37;;;;;;;;;7.25;6.50;;;;;;;;5070859;27;50963;-56
2021/07/19 08:47:05;;;;;;;;;8.00;8.00;;;;;;;;5070155;27;51105;-56
2021/07/19 08:49:32;;;;;;;;;7.25;7.25;;;;;;;;5070772;27;50941;-56
2021/07/19 08:51:58;;;;;;;;;7.25;7.25;;;;;;;;5070234;27;51009;-54
2021/07/19 08:54:24;;;;;;;;;7.25;7.25;;;;;;;;5070036;28;51460;-56
2021/07/19 08:56:49;;;;;;;;;8.00;7.25;;;;;;;;5072222;28;51232;-56
2021/07/19 08:59:17;;;;;;;;;6.00;6.00;;;;;;;;5062134;28;50907;-56
2021/07/19 09:01:43;;;;;;;;;5.75;5.00;;;;;;;;5072126;28;51156;-56
2021/07/19 09:04:08;;;;;;;;;5.67;5.67;;;;;;;;5072306;28;51008;-56
2021/07/19 09:06:33;;;;;;;;;8.00;8.00;;;;;;;;5072924;27;51128;-56
2021/07/19 09:09:02;;;;;;;;;7.33;6.67;;;;;;;;5073966;27;50966;-55
2021/07/19 09:11:27;;;;;;;;;8.75;8.00;;;;;;;;5073844;27;50893;-56
2021/07/19 09:14:00;;;;;;;;;7.25;7.25;;;;;;;;5074432;27;50958;-56
2021/07/19 09:16:26;;;;;;;;;6.00;6.00;;;;;;;;5073369;27;51856;-56
2021/07/19 09:19:05;;;;;;;;;5.67;5.67;;;;;;;;5073731;27;50982;-55
2021/07/19 09:21:31;;;;;;;;;6.67;5.33;;;;;;;;5073578;27;51103;-55
2021/07/19 09:24:04;;;;;;;;;6.25;6.25;;;;;;;;5073938;27;51213;-55
2021/07/19 09:26:30;;;;;;;;;7.25;7.25;;;;;;;;5073089;27;53208;-55
2021/07/19 09:28:58;;;;;;;;;6.25;6.25;;;;;;;;5073205;27;50856;-55
2021/07/19 09:31:34;;;;;;;;;5.25;5.25;;;;;;;;5072750;27;51124;-56
2021/07/19 09:33:59;;;;;;;;;7.33;7.33;;;;;;;;5073005;27;51379;-57
2021/07/19 09:36:27;;;;;;;;;8.00;7.25;;;;;;;;5072743;27;51794;-56
2021/07/19 09:39:12;;;;;;;;;8.25;7.25;;;;;;;;5072890;27;51115;-55
2021/07/19 09:41:37;;;;;;;;;7.00;7.00;;;;;;;;5072653;28;51003;-57
2021/07/19 09:44:06;;;;;;;;;7.50;7.25;;;;;;;;5072728;28;51243;-55
2021/07/19 09:46:32;;;;;;;;;8.00;8.00;;;;;;;;5072194;27;52848;-56
2021/07/19 09:48:58;;;;;;;;;8.00;8.00;;;;;;;;5072509;27;50933;-57
2021/07/19 09:51:30;;;;;;;;;8.00;8.00;;;;;;;;5073103;27;50863;-55
2021/07/19 09:53:55;;;;;;;;;7.25;7.25;;;;;;;;5073050;27;51272;-55
2021/07/19 09:56:22;;;;;;;;;7.50;7.50;;;;;;;;5066254;27;51053;-55
2021/07/19 09:58:51;;;;;;;;;9.75;8.50;;;;;;;;5069983;28;50946;-55
2021/07/19 10:01:29;;;;;;;;;7.50;7.00;;;;;;;;5072605;27;51109;-56
2021/07/19 10:04:11;;;;;;;;;8.25;8.00;;;;;;;;5073106;27;51213;-56
2021/07/19 10:06:38;;;;;;;;;8.00;7.25;;;;;;;;5070921;27;51148;-55
2021/07/19 10:09:05;;;;;;;;;7.50;7.50;;;;;;;;5072495;27;51035;-55
2021/07/19 10:11:35;;;;;;;;;5.75;5.50;;;;;;;;5072569;27;50795;-56
2021/07/19 10:14:01;;;;;;;;;8.50;8.50;;;;;;;;5073016;27;51381;-57
2021/07/19 10:16:28;;;;;;;;;8.00;8.00;;;;;;;;5071581;27;52167;-56
2021/07/19 10:18:54;;;;;;;;;7.00;7.00;;;;;;;;5072533;28;50999;-57
2021/07/19 10:21:23;;;;;;;;;6.00;6.00;;;;;;;;5072025;27;50829;-55
2021/07/19 10:23:49;;;;;;;;;6.25;6.25;;;;;;;;5070837;28;51188;-56
2021/07/19 10:26:15;;;;;;;;;8.00;8.00;;;;;;;;5072249;27;51615;-57
2021/07/19 10:28:40;;;;;;;;;7.00;7.00;;;;;;;;5072378;27;51056;-56
2021/07/19 10:31:08;;;;;;;;;7.00;6.50;;;;;;;;5071637;27;51043;-55
2021/07/19 10:33:35;;;;;;;;;7.00;7.00;;;;;;;;5071935;27;51267;-56
2021/07/19 10:36:02;;;;;;;;;7.75;7.50;;;;;;;;5071701;27;50990;-55
2021/07/19 10:38:29;;;;;;;;;7.50;7.50;;;;;;;;5071904;27;50989;-57
2021/07/19 10:40:58;;;;;;;;;6.00;6.00;;;;;;;;5071624;27;51247;-56
2021/07/19 10:43:29;;;;;;;;;9.50;9.00;;;;;;;;5071890;27;50948;-56
2021/07/19 10:45:58;;;;;;;;;9.00;8.75;;;;;;;;5070877;27;50976;-55
2021/07/19 10:48:27;;;;;;;;;8.50;8.50;;;;;;;;5071651;27;50863;-57
2021/07/19 10:50:53;;;;;;;;;7.50;7.25;;;;;;;;5071484;27;51135;-54
2021/07/19 10:53:20;;;;;;;;;6.00;5.75;;;;;;;;5071873;27;51143;-56
2021/07/19 10:55:56;;;;;;;;;7.50;6.75;;;;;;;;5069876;28;51166;-54
2021/07/19 10:58:28;;;;;;;;;8.50;8.50;;;;;;;;5071501;27;50975;-56
2021/07/19 11:00:53;;;;;;;;;11.00;10.25;;;;;;;;5071350;27;51256;-56
2021/07/19 11:03:18;;;;;;;;;8.00;7.75;;;;;;;;5071375;27;51355;-57
2021/07/19 11:05:45;;;;;;;;;9.75;9.75;;;;;;;;5069609;27;50938;-56
2021/07/19 11:08:21;;;;;;;;;9.00;8.75;;;;;;;;5071140;27;51141;-54
2021/07/19 11:10:47;;;;;;;;;10.25;9.75;;;;;;;;5071081;27;51096;-56
2021/07/19 11:13:22;;;;;;;;;8.00;7.00;;;;;;;;5069624;28;51335;-55
2021/07/19 11:15:48;;;;;;;;;8.50;8.50;;;;;;;;5070828;27;51488;-56
2021/07/19 11:18:17;;;;;;;;;5.75;5.75;;;;;;;;5070689;27;50976;-57
2021/07/19 11:20:47;;;;;;;;;8.25;8.00;;;;;;;;5071708;27;51186;-57
2021/07/19 11:23:13;;;;;;;;;10.75;8.50;;;;;;;;5071578;27;51336;-57
2021/07/19 11:25:43;;;;;;;;;8.25;8.25;;;;;;;;5070605;27;52206;-57
2021/07/19 11:28:15;;;;;;;;;8.00;7.25;;;;;;;;5071026;27;50969;-56
2021/07/19 11:30:40;;;;;;;;;8.50;8.50;;;;;;;;5069117;28;50949;-57
2021/07/19 11:33:10;;;;;;;;;7.00;7.00;;;;;;;;5071139;27;51027;-57
2021/07/19 11:35:40;;;;;;;;;8.00;8.00;;;;;;;;5070496;27;52795;-56
2021/07/19 11:38:13;;;;;;;;;8.25;8.25;;;;;;;;5070382;27;50934;-56
2021/07/19 11:40:40;;;;;;;;;9.00;8.00;;;;;;;;5070579;27;51010;-56
2021/07/19 11:43:15;;;;;;;;;9.50;9.00;;;;;;;;5069672;28;51227;-55
2021/07/19 11:45:44;;;;;;;;;7.00;7.00;;;;;;;;5069967;27;51473;-56
2021/07/19 11:48:10;;;;;;;;;9.75;9.00;;;;;;;;5070649;27;51064;-55
2021/07/19 11:50:35;;;;;;;;;9.25;8.25;;;;;;;;5071080;27;51134;-56
2021/07/19 11:53:00;;;;;;;;;6.67;6.67;;;;;;;;5071127;28;51080;-57
2021/07/19 11:55:26;;;;;;;;;11.00;11.00;;;;;;;;5070370;27;51104;-56
2021/07/19 11:57:55;;;;;;;;;9.00;8.67;;;;;;;;5060431;27;51080;-57
2021/07/19 12:00:35;;;;;;;;;8.33;8.33;;;;;;;;5065204;28;51309;-57
2021/07/19 12:03:11;;;;;;;;;8.00;6.50;;;;;;;;5070456;27;51850;-56
2021/07/19 12:05:36;;;;;;;;;5.33;5.33;;;;;;;;5069912;27;51714;-56
2021/07/19 12:08:06;;;;;;;;;7.33;7.33;;;;;;;;5070719;28;51049;-55
2021/07/19 12:10:33;;;;;;;;;8.00;8.00;;;;;;;;5070543;28;51057;-55
2021/07/19 12:13:06;;;;;;;;;8.67;8.67;;;;;;;;5061317;27;50999;-56
2021/07/19 12:15:31;;;;;;;;;8.00;7.67;;;;;;;;5070521;28;51096;-54
2021/07/19 12:17:57;;;;;;;;;5.67;5.67;;;;;;;;5070339;27;51120;-56
2021/07/19 12:20:28;;;;;;;;;9.33;9.33;;;;;;;;5069419;28;52206;-56
2021/07/19 12:22:54;;;;;;;;;10.67;10.67;;;;;;;;5070781;27;51072;-55
2021/07/19 12:25:19;;;;;;;;;9.67;9.67;;;;;;;;5070643;27;50885;-55
2021/07/19 12:27:53;;;;;;;;;7.00;7.00;;;;;;;;5070747;27;51025;-54
2021/07/19 12:30:22;;;;;;;;;11.00;10.00;;;;;;;;5072999;28;51082;-56
2021/07/19 12:32:49;;;;;;;;;8.00;7.67;;;;;;;;5073875;27;50859;-55
2021/07/19 12:35:14;;;;;;;;;8.67;8.67;;;;;;;;5074265;27;51064;-55
2021/07/19 12:37:40;;;;;;;;;10.67;10.67;;;;;;;;5071952;28;51069;-55
2021/07/19 12:40:05;;;;;;;;;9.00;9.00;;;;;;;;5074354;27;51157;-56
2021/07/19 12:42:32;;;;;;;;;8.67;8.00;;;;;;;;5073963;27;51308;-55
2021/07/19 12:44:58;;;;;;;;;11.33;10.67;;;;;;;;5073919;27;52206;-56
2021/07/19 12:47:26;;;;;;;;;7.00;7.00;;;;;;;;5073237;28;51042;-56
2021/07/19 12:49:51;;;;;;;;;9.00;8.67;;;;;;;;5073704;27;51161;-55
2021/07/19 12:52:18;;;;;;;;;10.00;10.00;;;;;;;;5073573;27;51339;-55
2021/07/19 12:54:56;;;;;;;;;10.33;10.33;;;;;;;;5073401;27;51917;-55
2021/07/19 12:57:22;;;;;;;;;9.67;8.67;;;;;;;;5073430;27;51048;-55
2021/07/19 12:59:49;;;;;;;;;10.00;9.67;;;;;;;;5074032;27;51078;-55
2021/07/19 13:02:15;;;;;;;;;12.00;10.00;;;;;;;;5073586;27;51219;-56
2021/07/19 13:04:40;;;;;;;;;10.00;9.00;;;;;;;;5071795;28;51536;-55
2021/07/19 13:07:06;;;;;;;;;9.00;9.00;;;;;;;;5073396;27;51093;-54
2021/07/19 13:09:33;;;;;;;;;11.00;10.00;;;;;;;;5072108;28;51265;-57
2021/07/19 13:12:02;;;;;;;;;10.00;9.33;;;;;;;;5073252;27;51416;-54
2021/07/19 13:14:37;;;;;;;;;9.33;9.33;;;;;;;;5072642;27;51951;-55
2021/07/19 13:17:02;;;;;;;;;9.00;9.00;;;;;;;;5070936;27;51105;-54
2021/07/19 13:19:30;;;;;;;;;9.67;8.33;;;;;;;;5073095;27;50986;-56
2021/07/19 13:21:56;;;;;;;;;8.33;8.33;;;;;;;;5073877;27;51365;-55
2021/07/19 13:24:21;;;;;;;;;10.33;10.33;;;;;;;;5073219;27;50998;-55
2021/07/19 13:26:46;;;;;;;;;12.00;12.00;;;;;;;;5073234;27;50878;-55
2021/07/19 13:29:12;;;;;;;;;9.67;9.00;;;;;;;;5073166;27;51195;-57
2021/07/19 13:31:37;;;;;;;;;8.67;8.00;;;;;;;;5072949;27;51143;-56
2021/07/19 13:34:12;;;;;;;;;10.67;9.67;;;;;;;;5072988;27;52106;-55
2021/07/19 13:36:39;;;;;;;;;8.33;8.33;;;;;;;;5073241;27;50878;-56
2021/07/19 13:39:04;;;;;;;;;7.33;7.00;;;;;;;;5072956;27;51043;-56
2021/07/19 13:41:29;;;;;;;;;9.67;9.33;;;;;;;;5073002;27;52187;-55
2021/07/19 13:43:59;;;;;;;;;10.00;9.00;;;;;;;;5072361;27;52218;-55
2021/07/19 13:46:24;;;;;;;;;10.67;8.33;;;;;;;;5072831;28;50961;-57
2021/07/19 13:48:50;;;;;;;;;7.67;7.67;;;;;;;;5073031;27;51020;-58
2021/07/19 13:51:15;;;;;;;;;10.00;10.00;;;;;;;;5072769;27;51020;-55
2021/07/19 13:53:40;;;;;;;;;9.00;9.00;;;;;;;;5072557;27;51378;-57
2021/07/19 13:56:06;;;;;;;;;9.00;8.33;;;;;;;;5072641;27;50981;-55
2021/07/19 13:58:31;;;;;;;;;10.00;9.00;;;;;;;;5066033;27;51152;-56
2021/07/19 14:00:58;;;;;;;;;8.67;8.67;;;;;;;;5072418;27;50895;-54
2021/07/19 14:03:23;;;;;;;;;9.00;9.00;;;;;;;;5072444;28;51138;-54
2021/07/19 14:05:49;;;;;;;;;9.67;8.67;;;;;;;;5070985;27;50891;-54
2021/07/19 14:08:14;;;;;;;;;9.33;8.67;;;;;;;;5072521;27;51145;-57
2021/07/19 14:10:40;;;;;;;;;6.00;6.00;;;;;;;;5073170;27;51118;-55
2021/07/19 14:13:06;;;;;;;;;9.33;8.67;;;;;;;;5070416;28;51729;-55
2021/07/19 14:15:31;;;;;;;;;11.00;9.67;;;;;;;;5072069;27;51130;-56
2021/07/19 14:17:57;;;;;;;;;9.67;9.67;;;;;;;;5072271;27;50992;-56
2021/07/19 14:20:22;;;;;;;;;6.67;6.67;;;;;;;;5072479;28;51340;-54
2021/07/19 14:22:47;;;;;;;;;8.67;8.67;;;;;;;;5072053;28;51048;-55
2021/07/19 14:25:13;;;;;;;;;9.00;9.00;;;;;;;;5072464;27;51065;-54